createdAt,value
2022-12-10T00:01:19.945Z,96333.78
2022-12-10T00:04:22.693Z,96335.44
2022-12-10T00:07:24.824Z,96340.66
2022-12-10T00:10:26.917Z,96333.78
2022-12-10T00:13:29.107Z,96331.19
2022-12-10T00:16:35.378Z,96339.81
2022-12-10T00:19:37.673Z,96335.56
2022-12-10T00:22:39.809Z,96348.53
2022-12-10T00:25:42.625Z,96342.41
2022-12-10T00:28:45.714Z,96344.91
2022-12-10T00:31:47.742Z,96358.00
2022-12-10T00:34:49.906Z,96352.81
2022-12-10T00:37:51.926Z,96361.53
2022-12-10T00:40:53.963Z,96360.00
2022-12-10T00:43:56.113Z,96363.53
2022-12-10T00:46:58.113Z,96371.19
2022-12-10T00:50:00.983Z,96385.84
2022-12-10T00:53:03.103Z,96388.44
2022-12-10T00:56:05.934Z,96382.22
2022-12-10T00:59:08.039Z,96375.38
2022-12-10T01:02:10.734Z,96388.16
2022-12-10T01:05:13.355Z,96380.47
2022-12-10T01:08:15.456Z,96383.91
2022-12-10T01:11:20.217Z,96384.56
2022-12-10T01:14:28.117Z,96381.13
2022-12-10T01:17:31.296Z,96376.94
2022-12-10T01:20:36.457Z,96373.41
2022-12-10T01:23:42.205Z,96371.66
2022-12-10T01:26:44.200Z,96368.22
2022-12-10T01:29:46.265Z,96368.31
2022-12-10T01:32:48.277Z,96377.78
2022-12-10T01:35:50.432Z,96368.22
2022-12-10T01:38:53.588Z,96371.56
2022-12-10T01:41:58.295Z,96352.44
2022-12-10T01:45:07.992Z,96352.63
2022-12-10T01:48:10.080Z,96352.53
2022-12-10T01:51:13.748Z,96378.41
2022-12-10T01:54:20.387Z,96394.72
2022-12-10T01:57:28.463Z,96387.75
2022-12-10T02:00:35.857Z,96397.13
2022-12-10T02:04:12.035Z,96409.31
2022-12-10T02:07:17.197Z,96424.91
2022-12-10T02:10:56.219Z,96424.91
2022-12-10T02:14:13.915Z,96418.84
2022-12-10T02:17:24.015Z,96405.03
2022-12-10T02:20:37.988Z,96390.47
2022-12-10T02:23:50.562Z,96400.03
2022-12-10T02:27:08.054Z,96407.63
2022-12-10T02:30:10.818Z,96403.25
2022-12-10T02:33:15.294Z,96406.78
2022-12-10T02:36:20.033Z,96408.56
2022-12-10T02:39:32.259Z,96413.84
2022-12-10T02:42:39.958Z,96415.53
2022-12-10T02:45:44.849Z,96401.91
2022-12-10T02:48:50.265Z,96411.47
2022-12-10T02:51:54.123Z,96412.31
2022-12-10T02:54:57.303Z,96413.13
2022-12-10T02:58:18.594Z,96417.41
2022-12-10T03:01:43.125Z,96426.84
2022-12-10T03:05:03.396Z,96418.34
2022-12-10T03:08:20.320Z,96420.94
2022-12-10T03:11:24.342Z,96410.53
2022-12-10T03:14:32.287Z,96418.34
2022-12-10T03:17:36.143Z,96409.72
2022-12-10T03:20:44.062Z,96414.91
2022-12-10T03:23:49.160Z,96414.06
2022-12-10T03:26:53.607Z,96411.38
2022-12-10T03:29:59.288Z,96420.00
2022-12-10T03:33:02.348Z,96420.81
2022-12-10T03:36:06.611Z,96425.91
2022-12-10T03:39:09.525Z,96420.94
2022-12-10T03:42:11.571Z,96428.59
2022-12-10T03:45:13.628Z,96445.03
2022-12-10T03:48:15.580Z,96445.03
2022-12-10T03:51:17.567Z,96453.59
2022-12-10T03:54:19.631Z,96460.44
2022-12-10T03:57:21.719Z,96469.91
2022-12-10T04:00:23.794Z,96456.94
2022-12-10T04:03:25.748Z,96452.66
2022-12-10T04:06:27.861Z,96449.22
2022-12-10T04:09:29.958Z,96456.41
2022-12-10T04:12:32.015Z,96456.28
2022-12-10T04:15:52.879Z,96477.91
2022-12-10T04:19:10.908Z,96477.91
2022-12-10T04:22:31.591Z,96483.09
2022-12-10T04:25:52.074Z,96474.59
2022-12-10T04:28:55.356Z,96477.06
2022-12-10T04:31:58.179Z,96480.50
2022-12-10T04:35:00.288Z,96481.34
2022-12-10T04:38:02.326Z,96478.66
2022-12-10T04:41:16.503Z,96470.84
2022-12-10T04:44:19.991Z,96462.22
2022-12-10T04:47:22.240Z,96463.13
2022-12-10T04:50:24.228Z,96455.66
2022-12-10T04:53:26.228Z,96448.88
2022-12-10T04:56:28.331Z,96454.16
2022-12-10T04:59:30.289Z,96445.63
2022-12-10T05:02:35.699Z,96451.66
2022-12-10T05:05:38.069Z,96445.63
2022-12-10T05:08:41.779Z,96448.22
2022-12-10T05:11:45.583Z,96450.13
2022-12-10T05:14:47.491Z,96444.91
2022-12-10T05:17:49.477Z,96449.06
2022-12-10T05:20:51.472Z,96437.97
2022-12-10T05:23:53.807Z,96444.78
2022-12-10T05:26:57.746Z,96450.81
2022-12-10T05:29:59.761Z,96449.06
2022-12-10T05:33:01.786Z,96456.84
2022-12-10T05:36:05.517Z,96456.75
2022-12-10T05:39:08.152Z,96454.16
2022-12-10T05:42:10.193Z,96450.81
2022-12-10T05:45:13.170Z,96452.72
2022-12-10T05:48:17.410Z,96457.91
2022-12-10T05:51:23.419Z,96467.47
2022-12-10T05:54:25.738Z,96472.66
2022-12-10T05:57:27.942Z,96481.09
2022-12-10T06:00:30.034Z,96492.31
2022-12-10T06:03:32.055Z,96498.44
2022-12-10T06:06:39.466Z,96494.06
2022-12-10T06:09:41.480Z,96497.81
2022-12-10T06:12:43.562Z,96504.69
2022-12-10T06:15:45.721Z,96502.09
2022-12-10T06:18:47.742Z,96510.72
2022-12-10T06:21:52.672Z,96507.16
2022-12-10T06:24:54.893Z,96508.22
2022-12-10T06:27:57.012Z,96518.59
2022-12-10T06:31:00.719Z,96529.84
2022-12-10T06:34:03.352Z,96542.00
2022-12-10T06:37:08.562Z,96536.88
2022-12-10T06:40:11.144Z,96523.91
2022-12-10T06:43:13.340Z,96530.84
2022-12-10T06:46:18.562Z,96534.38
2022-12-10T06:49:20.618Z,96537.81
2022-12-10T06:52:22.760Z,96531.78
2022-12-10T06:55:25.228Z,96529.19
2022-12-10T06:58:31.569Z,96518.03
2022-12-10T07:01:34.388Z,96512.84
2022-12-10T07:04:36.560Z,96511.16
2022-12-10T07:07:41.183Z,96516.47
2022-12-10T07:10:55.146Z,96519.19
2022-12-10T07:14:00.117Z,96503.59
2022-12-10T07:17:03.506Z,96502.75
2022-12-10T07:20:06.438Z,96511.56
2022-12-10T07:23:08.771Z,96502.94
2022-12-10T07:26:17.248Z,96505.44
2022-12-10T07:29:22.900Z,96491.53
2022-12-10T07:32:26.192Z,96483.72
2022-12-10T07:35:28.549Z,96484.44
2022-12-10T07:38:30.673Z,96496.50
2022-12-10T07:41:32.886Z,96487.78
2022-12-10T07:44:35.512Z,96494.56
2022-12-10T07:47:40.203Z,96487.69
2022-12-10T07:50:44.538Z,96485.84
2022-12-10T07:53:47.123Z,96485.75
2022-12-10T07:56:50.730Z,96491.56
2022-12-10T07:59:52.736Z,96491.56
2022-12-10T08:02:58.417Z,96487.34
2022-12-10T08:06:10.075Z,96495.75
2022-12-10T08:09:13.460Z,96490.56
2022-12-10T08:12:15.509Z,96483.31
2022-12-10T08:15:17.521Z,96475.41
2022-12-10T08:18:19.518Z,96481.06
2022-12-10T08:21:24.666Z,96473.34
2022-12-10T08:24:26.702Z,96478.56
2022-12-10T08:27:29.158Z,96476.88
2022-12-10T08:30:32.038Z,96475.94
2022-12-10T08:33:36.046Z,96480.31
2022-12-10T08:36:38.492Z,96483.84
2022-12-10T08:39:41.415Z,96486.63
2022-12-10T08:42:43.793Z,96499.75
2022-12-10T08:45:45.890Z,96499.84
2022-12-10T08:48:47.969Z,96497.88
2022-12-10T08:51:50.087Z,96507.41
2022-12-10T08:54:52.464Z,96514.19
2022-12-10T08:57:54.523Z,96521.91
2022-12-10T09:00:56.983Z,96523.28
2022-12-10T09:03:59.708Z,96522.16
2022-12-10T09:07:02.785Z,96515.94
2022-12-10T09:10:05.360Z,96523.94
2022-12-10T09:13:08.069Z,96530.72
2022-12-10T09:16:10.522Z,96530.41
2022-12-10T09:19:18.384Z,96526.59
2022-12-10T09:22:22.127Z,96530.03
2022-12-10T09:25:24.094Z,96511.00
2022-12-10T09:28:26.111Z,96505.28
2022-12-10T09:31:28.812Z,96507.50
2022-12-10T09:34:32.902Z,96505.53
2022-12-10T09:37:34.907Z,96509.41
2022-12-10T09:40:44.318Z,96514.19
2022-12-10T09:43:51.455Z,96513.34
2022-12-10T09:46:58.942Z,96514.09
2022-12-10T09:50:30.189Z,96521.47
2022-12-10T09:53:33.767Z,96520.97
2022-12-10T09:56:41.094Z,96525.13
2022-12-10T09:59:48.060Z,96525.84
2022-12-10T10:02:52.177Z,96522.13
2022-12-10T10:05:57.646Z,96513.78
2022-12-10T10:09:03.612Z,96502.25
2022-12-10T10:12:14.732Z,96500.66
2022-12-10T10:15:23.834Z,96497.59
2022-12-10T10:18:42.100Z,96491.88
2022-12-10T10:21:50.766Z,96499.38
2022-12-10T10:24:52.784Z,96481.25
2022-12-10T10:27:55.843Z,96491.78
2022-12-10T10:30:57.917Z,96492.72
2022-12-10T10:34:05.690Z,96496.06
2022-12-10T10:37:08.409Z,96500.91
2022-12-10T10:40:40.636Z,96498.66
2022-12-10T10:43:48.537Z,96493.13
2022-12-10T10:46:53.622Z,96482.84
2022-12-10T10:49:55.633Z,96482.34
2022-12-10T10:52:57.596Z,96477.88
2022-12-10T10:56:08.324Z,96482.44
2022-12-10T10:59:19.294Z,96464.22
2022-12-10T11:02:42.809Z,96458.88
2022-12-10T11:05:49.171Z,96458.69
2022-12-10T11:08:56.048Z,96451.31
2022-12-10T11:12:04.289Z,96451.09
2022-12-10T11:15:30.570Z,96445.28
2022-12-10T11:18:38.005Z,96450.56
2022-12-10T11:21:40.040Z,96435.59
2022-12-10T11:24:42.039Z,96425.72
2022-12-10T11:28:03.055Z,96417.16
2022-12-10T11:31:11.024Z,96412.78
2022-12-10T11:34:43.485Z,96414.66
2022-12-10T11:37:56.047Z,96416.34
2022-12-10T11:41:21.518Z,96413.53
2022-12-10T11:44:29.182Z,96418.00
2022-12-10T11:47:41.870Z,96411.13
2022-12-10T11:51:05.490Z,96406.31
2022-12-10T11:54:27.525Z,96414.56
2022-12-10T11:57:48.939Z,96425.91
2022-12-10T12:01:11.903Z,96420.16
2022-12-10T12:04:41.837Z,96413.00
2022-12-10T12:07:54.976Z,96417.69
2022-12-10T12:11:06.041Z,96409.88
2022-12-10T12:14:17.297Z,96424.84
2022-12-10T12:17:30.265Z,96426.59
2022-12-10T12:20:38.885Z,96429.13
2022-12-10T12:24:04.576Z,96428.19
2022-12-10T12:27:14.691Z,96417.16
2022-12-10T12:30:20.466Z,96411.75
2022-12-10T12:33:25.122Z,96414.72
2022-12-10T12:36:35.726Z,96407.94
2022-12-10T12:39:51.292Z,96411.63
2022-12-10T12:43:19.033Z,96399.31
2022-12-10T12:46:38.449Z,96408.59
2022-12-10T12:49:42.661Z,96412.66
2022-12-10T12:52:52.228Z,96420.47
2022-12-10T12:56:07.087Z,96416.09
2022-12-10T12:59:21.069Z,96427.97
2022-12-10T13:02:41.929Z,96423.69
2022-12-10T13:05:45.158Z,96408.50
2022-12-10T13:09:08.655Z,96408.91
2022-12-10T13:12:16.588Z,96428.88
2022-12-10T13:15:37.511Z,96437.28
2022-12-10T13:18:40.940Z,96448.19
2022-12-10T13:21:51.913Z,96455.78
2022-12-10T13:25:14.727Z,96458.47
2022-12-10T13:28:41.539Z,96459.09
2022-12-10T13:31:58.100Z,96450.53
2022-12-10T13:35:08.928Z,96441.81
2022-12-10T13:38:26.722Z,96445.44
2022-12-10T13:41:47.328Z,96450.63
2022-12-10T13:45:00.260Z,96451.13
2022-12-10T13:48:21.021Z,96438.44
2022-12-10T13:51:28.731Z,96433.25
2022-12-10T13:55:22.289Z,96440.22
2022-12-10T13:59:12.124Z,96442.69
2022-12-10T14:02:25.801Z,96442.69
2022-12-10T14:05:48.906Z,96448.63
2022-12-10T14:09:11.839Z,96438.63
2022-12-10T14:12:21.752Z,96451.63
2022-12-10T14:15:26.514Z,96450.06
2022-12-10T14:18:31.354Z,96450.06
2022-12-10T14:21:39.996Z,96446.81
2022-12-10T14:24:44.434Z,96444.50
2022-12-10T14:27:54.435Z,96453.06
2022-12-10T14:30:56.461Z,96450.25
2022-12-10T14:34:06.237Z,96449.97
2022-12-10T14:37:14.546Z,96446.44
2022-12-10T14:40:24.754Z,96444.66
2022-12-10T14:43:36.829Z,96442.91
2022-12-10T14:46:38.886Z,96444.56
2022-12-10T14:49:44.444Z,96451.81
2022-12-10T14:52:51.988Z,96451.91
2022-12-10T14:55:59.156Z,96443.28
2022-12-10T14:59:22.241Z,96444.03
2022-12-10T15:02:34.950Z,96449.22
2022-12-10T15:05:38.182Z,96446.72
2022-12-10T15:08:43.920Z,96445.34
2022-12-10T15:11:46.167Z,96444.59
2022-12-10T15:14:48.974Z,96445.53
2022-12-10T15:18:02.177Z,96452.59
2022-12-10T15:21:06.491Z,96445.09
2022-12-10T15:24:16.960Z,96440.00
2022-12-10T15:27:25.616Z,96433.03
2022-12-10T15:30:41.051Z,96440.09
2022-12-10T15:34:08.584Z,96440.19
2022-12-10T15:37:42.355Z,96440.19
2022-12-10T15:40:45.386Z,96444.75
2022-12-10T15:44:05.869Z,96430.38
2022-12-10T15:47:25.293Z,96444.28
2022-12-10T15:50:31.259Z,96442.72
2022-12-10T15:53:39.737Z,96446.34
2022-12-10T15:56:44.137Z,96442.91
2022-12-10T15:59:49.795Z,96435.41
2022-12-10T16:02:58.135Z,96438.38
2022-12-10T16:06:00.546Z,96439.41
2022-12-10T16:09:03.998Z,96437.00
2022-12-10T16:12:11.855Z,96436.06
2022-12-10T16:15:22.130Z,96433.38
2022-12-10T16:18:28.273Z,96435.03
2022-12-10T16:21:34.929Z,96434.88
2022-12-10T16:24:43.567Z,96431.34
2022-12-10T16:27:48.519Z,96435.59
2022-12-10T16:30:56.472Z,96448.59
2022-12-10T16:33:59.402Z,96447.53
2022-12-10T16:37:02.298Z,96446.72
2022-12-10T16:40:05.307Z,96450.06
2022-12-10T16:43:19.831Z,96448.38
2022-12-10T16:46:26.029Z,96453.56
2022-12-10T16:49:28.634Z,96452.75
2022-12-10T16:52:31.871Z,96455.56
2022-12-10T16:55:35.769Z,96458.25
2022-12-10T16:58:38.169Z,96453.31
2022-12-10T17:01:40.496Z,96444.06
2022-12-10T17:04:43.047Z,96445.16
2022-12-10T17:07:45.326Z,96447.03
2022-12-10T17:11:07.923Z,96447.84
2022-12-10T17:14:31.758Z,96444.41
2022-12-10T17:17:33.854Z,96447.09
2022-12-10T17:20:36.166Z,96438.50
2022-12-10T17:23:38.739Z,96443.69
2022-12-10T17:26:45.318Z,96440.16
2022-12-10T17:29:54.905Z,96449.81
2022-12-10T17:32:57.692Z,96446.31
2022-12-10T17:36:00.003Z,96439.53
2022-12-10T17:39:02.845Z,96446.38
2022-12-10T17:42:06.077Z,96453.88
2022-12-10T17:45:08.960Z,96461.75
2022-12-10T17:48:20.387Z,96455.72
2022-12-10T17:51:23.530Z,96455.84
2022-12-10T17:54:27.609Z,96460.22
2022-12-10T17:57:29.954Z,96456.78
2022-12-10T18:00:34.505Z,96457.63
2022-12-10T18:03:40.879Z,96452.50
2022-12-10T18:06:43.067Z,96448.16
2022-12-10T18:09:45.231Z,96453.34
2022-12-10T18:12:48.083Z,96449.81
2022-12-10T18:15:51.609Z,96453.13
2022-12-10T18:18:56.119Z,96448.06
2022-12-10T18:21:58.964Z,96450.53
2022-12-10T18:25:01.336Z,96444.72
2022-12-10T18:28:40.049Z,96453.25
2022-12-10T18:31:46.494Z,96442.13
2022-12-10T18:34:48.768Z,96439.53
2022-12-10T18:37:52.570Z,96438.78
2022-12-10T18:40:56.357Z,96446.47
2022-12-10T18:43:59.376Z,96440.38
2022-12-10T18:47:01.967Z,96439.53
2022-12-10T18:50:05.585Z,96443.88
2022-12-10T18:53:12.554Z,96437.03
2022-12-10T18:56:22.628Z,96443.88
2022-12-10T18:59:25.267Z,96434.50
2022-12-10T19:02:28.199Z,96440.53
2022-12-10T19:05:31.354Z,96434.50
2022-12-10T19:08:55.090Z,96425.88
2022-12-10T19:11:57.399Z,96433.69
2022-12-10T19:15:00.131Z,96427.56
2022-12-10T19:18:04.607Z,96428.47
2022-12-10T19:21:09.464Z,96426.06
2022-12-10T19:24:16.620Z,96442.59
2022-12-10T19:27:19.931Z,96432.22
2022-12-10T19:30:26.475Z,96440.81
2022-12-10T19:33:29.226Z,96434.06
2022-12-10T19:36:32.300Z,96441.94
2022-12-10T19:39:36.385Z,96438.69
2022-12-10T19:42:39.225Z,96435.34
2022-12-10T19:45:41.870Z,96433.69
2022-12-10T19:48:46.931Z,96436.38
2022-12-10T19:51:50.705Z,96440.81
2022-12-10T19:54:53.503Z,96443.41
2022-12-10T19:57:56.815Z,96451.28
2022-12-10T20:01:05.783Z,96453.88
2022-12-10T20:04:08.970Z,96453.06
2022-12-10T20:07:13.934Z,96450.38
2022-12-10T20:10:35.280Z,96451.59
2022-12-10T20:13:39.853Z,96450.94
2022-12-10T20:16:45.319Z,96450.28
2022-12-10T20:19:48.449Z,96450.34
2022-12-10T20:22:52.315Z,96446.00
2022-12-10T20:25:56.354Z,96438.22
2022-12-10T20:29:00.908Z,96437.28
2022-12-10T20:32:04.849Z,96426.91
2022-12-10T20:35:09.265Z,96428.75
2022-12-10T20:38:13.905Z,96426.28
2022-12-10T20:41:19.057Z,96429.81
2022-12-10T20:44:23.826Z,96435.91
2022-12-10T20:47:27.088Z,96442.03
2022-12-10T20:50:31.739Z,96441.09
2022-12-10T20:53:39.128Z,96446.28
2022-12-10T20:56:44.157Z,96451.56
2022-12-10T20:59:47.425Z,96447.31
2022-12-10T21:02:51.475Z,96448.97
2022-12-10T21:05:56.303Z,96443.78
2022-12-10T21:09:00.743Z,96442.94
2022-12-10T21:12:04.784Z,96442.88
2022-12-10T21:15:16.546Z,96442.03
2022-12-10T21:18:25.170Z,96434.31
2022-12-10T21:21:28.683Z,96436.09
2022-12-10T21:24:31.378Z,96436.91
2022-12-10T21:27:33.664Z,96434.31
2022-12-10T21:30:35.913Z,96441.38
2022-12-10T21:33:39.902Z,96439.59
2022-12-10T21:36:42.371Z,96443.78
2022-12-10T21:39:45.090Z,96442.13
2022-12-10T21:43:05.704Z,96443.88
2022-12-10T21:46:11.074Z,96440.34
2022-12-10T21:49:13.598Z,96441.19
2022-12-10T21:52:17.169Z,96445.47
2022-12-10T21:55:24.053Z,96453.41
2022-12-10T21:58:29.098Z,96461.94
2022-12-10T22:01:31.385Z,96461.94
2022-12-10T22:04:33.368Z,96463.72
2022-12-10T22:07:37.206Z,96468.06
2022-12-10T22:10:39.250Z,96464.72
2022-12-10T22:13:41.379Z,96457.97
2022-12-10T22:16:48.133Z,96458.97
2022-12-10T22:19:50.926Z,96453.69
2022-12-10T22:22:53.128Z,96449.44
2022-12-10T22:25:57.555Z,96446.19
2022-12-10T22:28:59.922Z,96442.00
2022-12-10T22:32:01.946Z,96449.88
2022-12-10T22:35:04.081Z,96447.38
2022-12-10T22:38:06.309Z,96456.09
2022-12-10T22:41:08.445Z,96457.94
2022-12-10T22:44:11.143Z,96458.84
2022-12-10T22:47:13.080Z,96459.84
2022-12-10T22:50:15.203Z,96464.28
2022-12-10T22:53:17.284Z,96453.13
2022-12-10T22:56:19.548Z,96446.34
2022-12-10T22:59:21.512Z,96447.19
2022-12-10T23:02:23.434Z,96438.56
2022-12-10T23:05:25.495Z,96425.59
2022-12-10T23:08:28.770Z,96429.94
2022-12-10T23:11:30.798Z,96413.63
2022-12-10T23:14:34.006Z,96414.56
2022-12-10T23:17:36.043Z,96411.03
2022-12-10T23:20:38.483Z,96405.09
2022-12-10T23:23:40.435Z,96404.25
2022-12-10T23:26:44.440Z,96395.84
2022-12-10T23:29:46.775Z,96404.56
2022-12-10T23:32:48.974Z,96410.56
2022-12-10T23:35:50.937Z,96414.84
2022-12-10T23:38:52.970Z,96414.00
2022-12-10T23:41:54.942Z,96408.81
2022-12-10T23:44:58.102Z,96410.56
2022-12-10T23:48:00.715Z,96412.41
2022-12-10T23:51:02.952Z,96412.41
2022-12-10T23:54:05.154Z,96412.50
2022-12-10T23:57:07.136Z,96422.88
